»·PEaware :: N50212 KSMX-KSNA

N50212 :: KSMX-KSNA

FLIGHT INFORMATION

Flight Status: Arrived
Operator: Privately registered:
United States
More flights under this callsign
Pilot: Brad H. (9994)
Aircraft: PIPER PA-34 SENECA
(PA34)
More flights by this aircraft type
Origin: KSMX Santa Maria Pub/Capt Hancock
United States
Destination: KSNA John Wayne-Orange Co
United States
More flights between these airports :: More routes between these airports
Route: +RZS V186 BAYJY V363 POXKU V8 SLI
File this flight plan on PilotEdge
Remarks: left engine may fail near destination
Altitude:
(Current/Filed)
7,000ft
Speed:
(Current/Filed)
140kts
Departed: 10-Jan-18 08:08 AM
Arrived: 10-Jan-18 09:21 AM
Distance/Time
Traveled:
148nm/1:12
Distance/Time
To Go:
Arrived

Flight Plot

Page will automatically refresh every two minutes.


Map Options




Map Legend


Flown Route
Filed Route
Departure Airport
Arrival Airport
Navaid (VOR, NDB)
Fix

Horizontal Profiles

Position Reports

Time Latitude Longitude Heading Altitude Ground
Speed
10-Jan-18 08:00 34.898862 -120.448111 316 248ft 0kts
10-Jan-18 08:01 34.898862 -120.448111 316 248ft 0kts
10-Jan-18 08:02 34.898862 -120.448111 316 248ft 0kts
10-Jan-18 08:03 34.898862 -120.448111 316 248ft 0kts
10-Jan-18 08:04 34.898862 -120.448111 316 248ft 0kts
10-Jan-18 08:05 34.898862 -120.448111 316 248ft 0kts
10-Jan-18 08:06 34.898939 -120.449365 264 246ft 0kts
10-Jan-18 08:07 34.898938 -120.449366 264 246ft 0kts
10-Jan-18 08:08 34.898938 -120.449366 264 246ft 0kts
10-Jan-18 08:09 34.898938 -120.449366 264 246ft 0kts
10-Jan-18 08:10 34.898938 -120.449366 264 246ft 0kts
10-Jan-18 08:11 34.898891 -120.449664 251 246ft 11kts
10-Jan-18 08:12 34.895225 -120.446272 131 254ft 16kts
10-Jan-18 08:13 34.894420 -120.445713 172 255ft 0kts
10-Jan-18 08:14 34.894358 -120.447678 315 253ft 54kts
10-Jan-18 08:15 34.918612 -120.466513 15 1264ft 128kts
10-Jan-18 08:16 34.920691 -120.428340 112 2258ft 124kts
10-Jan-18 08:17 34.907829 -120.390287 112 3250ft 120kts
10-Jan-18 08:18 34.895220 -120.352972 112 4245ft 119kts
10-Jan-18 08:19 34.882718 -120.315963 112 5240ft 118kts
10-Jan-18 08:20 34.861676 -120.286582 129 6214ft 108kts
10-Jan-18 08:21 34.843749 -120.260754 128 7020ft 107kts
10-Jan-18 08:22 34.820277 -120.226524 129 7015ft 143kts
10-Jan-18 08:23 34.794659 -120.188633 129 6980ft 144kts
10-Jan-18 08:24 34.769175 -120.151091 129 6980ft 144kts
10-Jan-18 08:25 34.747927 -120.119816 129 6981ft 144kts
10-Jan-18 08:26 34.718200 -120.076110 129 6981ft 144kts
10-Jan-18 08:27 34.696885 -120.044804 129 6981ft 144kts
10-Jan-18 08:28 34.667143 -120.001170 129 6981ft 144kts
10-Jan-18 08:29 34.646130 -119.970372 129 7021ft 142kts
10-Jan-18 08:30 34.620762 -119.933230 129 7027ft 143kts
10-Jan-18 08:31 34.591097 -119.889844 129 7026ft 143kts
10-Jan-18 08:32 34.569783 -119.858707 129 7026ft 144kts
10-Jan-18 08:33 34.544226 -119.821405 129 7026ft 144kts
10-Jan-18 08:34 34.518666 -119.784139 129 7026ft 144kts
10-Jan-18 08:35 34.501697 -119.741156 124 7011ft 144kts
10-Jan-18 08:36 34.476943 -119.703331 128 7026ft 143kts
10-Jan-18 08:37 34.452007 -119.665433 128 7026ft 144kts
10-Jan-18 08:38 34.427194 -119.627714 128 7026ft 144kts
10-Jan-18 08:39 34.402235 -119.589769 128 7026ft 144kts
10-Jan-18 08:40 34.377258 -119.551789 128 7026ft 144kts
10-Jan-18 08:41 34.362681 -119.507682 116 7027ft 143kts
10-Jan-18 08:42 34.342586 -119.465983 122 7026ft 144kts
10-Jan-18 08:43 34.321194 -119.425050 122 7026ft 144kts
10-Jan-18 08:44 34.319592 -119.378194 84 7027ft 143kts
10-Jan-18 08:45 34.323305 -119.330010 84 7026ft 144kts
10-Jan-18 08:46 34.326998 -119.281593 84 7026ft 144kts
10-Jan-18 08:47 34.325618 -119.234009 104 7029ft 143kts
10-Jan-18 08:48 34.317879 -119.186514 99 7026ft 144kts
10-Jan-18 08:49 34.311422 -119.138699 98 7026ft 144kts
10-Jan-18 08:50 34.305030 -119.090764 98 7026ft 144kts
10-Jan-18 08:51 34.298644 -119.042964 98 7026ft 144kts
10-Jan-18 08:52 34.292224 -118.995050 98 7026ft 144kts
10-Jan-18 08:53 34.285803 -118.947275 98 7026ft 144kts
10-Jan-18 08:54 34.279343 -118.899359 99 7026ft 144kts
10-Jan-18 08:55 34.272919 -118.851849 99 7026ft 144kts
10-Jan-18 08:56 34.266438 -118.804066 99 7026ft 144kts
10-Jan-18 08:57 34.259909 -118.756073 99 7026ft 144kts
10-Jan-18 08:58 34.253392 -118.708314 99 7026ft 144kts
10-Jan-18 08:59 34.246835 -118.660403 99 7026ft 144kts
10-Jan-18 09:00 34.240271 -118.612587 99 7026ft 144kts
10-Jan-18 09:01 34.233668 -118.564621 99 7026ft 144kts
10-Jan-18 09:02 34.227073 -118.516865 99 7026ft 144kts
10-Jan-18 09:03 34.216978 -118.469981 110 6970ft 148kts
10-Jan-18 09:04 34.201969 -118.420662 110 6499ft 161kts
10-Jan-18 09:05 34.186519 -118.369724 110 6005ft 162kts
10-Jan-18 09:06 34.170988 -118.318599 110 5505ft 161kts
10-Jan-18 09:07 34.155553 -118.267874 110 5069ft 158kts
10-Jan-18 09:08 34.141040 -118.220255 110 5025ft 146kts
10-Jan-18 09:09 34.127060 -118.174461 110 5026ft 144kts
10-Jan-18 09:10 34.113180 -118.129062 110 5026ft 144kts
10-Jan-18 09:11 34.099302 -118.083744 110 5026ft 144kts
10-Jan-18 09:12 34.085389 -118.038376 110 5026ft 144kts
10-Jan-18 09:13 34.071473 -117.993071 110 5026ft 144kts
10-Jan-18 09:14 34.057625 -117.948053 110 5008ft 145kts
10-Jan-18 09:15 34.043994 -117.903809 110 5008ft 144kts
10-Jan-18 09:16 34.030355 -117.859602 110 5008ft 144kts
10-Jan-18 09:17 34.016348 -117.814275 110 5008ft 144kts
10-Jan-18 09:18 33.988697 -117.785354 178 4601ft 157kts
10-Jan-18 09:19 33.944629 -117.784295 179 4040ft 157kts
10-Jan-18 09:20 33.903520 -117.783435 179 4028ft 143kts
10-Jan-18 09:21 33.861919 -117.781992 172 3418ft 153kts
10-Jan-18 09:22 33.823412 -117.773534 178 3368ft 129kts
10-Jan-18 09:23 33.790268 -117.793231 209 3173ft 137kts
10-Jan-18 09:24 33.758507 -117.815781 218 2897ft 132kts
10-Jan-18 09:25 33.726351 -117.836201 208 2019ft 129kts
10-Jan-18 09:26 33.698000 -117.855486 206 877ft 99kts
10-Jan-18 09:27 33.675945 -117.868781 205 48ft 39kts
10-Jan-18 09:28 33.674440 -117.868523 146 49ft 0kts

Navigation Log

Ident Type
1. KSMX Airport
2. RZS Navaid
3. ZIQOR Fix
4. DEANO Fix
5. HENER Fix
6. FIM Navaid
7. SESPE Fix
8. VNY Navaid
9. DARTS Fix
10. PURMS Fix
11. ELMOO Fix
12. ITSME Fix
13. PIRRO Fix
14. ADAMM Fix
15. BAYJY Fix
16. PRADO Fix
17. POXKU Fix
18. OLLIE Fix
19. AHEIM Fix
20. SLI Navaid
21. KSNA Airport